createdAt,value
2022-11-19T00:01:26.790Z,5.70
2022-11-19T00:03:54.657Z,5.23
2022-11-19T00:06:25.855Z,5.33
2022-11-19T00:08:54.128Z,5.53
2022-11-19T00:11:43.367Z,5.53
2022-11-19T00:14:12.446Z,5.83
2022-11-19T00:16:40.001Z,5.77
2022-11-19T00:19:07.475Z,5.70
2022-11-19T00:21:35.754Z,5.17
2022-11-19T00:24:02.730Z,5.50
2022-11-19T00:26:29.751Z,5.90
2022-11-19T00:28:56.737Z,5.37
2022-11-19T00:31:23.996Z,5.10
2022-11-19T00:33:51.006Z,5.30
2022-11-19T00:36:18.426Z,6.20
2022-11-19T00:38:47.679Z,5.53
2022-11-19T00:41:14.978Z,5.00
2022-11-19T00:43:48.070Z,5.93
2022-11-19T00:46:17.550Z,5.10
2022-11-19T00:48:45.644Z,4.83
2022-11-19T00:51:13.451Z,5.73
2022-11-19T00:53:40.775Z,5.53
2022-11-19T00:56:11.770Z,6.20
2022-11-19T00:58:39.978Z,5.70
2022-11-19T01:01:08.915Z,5.00
2022-11-19T01:03:36.837Z,5.13
2022-11-19T01:06:06.191Z,5.43
2022-11-19T01:08:33.209Z,5.47
2022-11-19T01:11:06.499Z,5.47
2022-11-19T01:13:35.946Z,5.67
2022-11-19T01:16:06.819Z,5.23
2022-11-19T01:18:36.636Z,5.37
2022-11-19T01:21:05.328Z,5.03
2022-11-19T01:23:33.427Z,5.60
2022-11-19T01:26:00.635Z,5.20
2022-11-19T01:28:28.202Z,5.07
2022-11-19T01:30:57.431Z,5.10
2022-11-19T01:33:25.025Z,5.10
2022-11-19T01:35:57.307Z,5.27
2022-11-19T01:38:24.270Z,5.80
2022-11-19T01:40:51.802Z,4.97
2022-11-19T01:43:18.865Z,5.03
2022-11-19T01:45:48.983Z,5.57
2022-11-19T01:48:24.648Z,5.47
2022-11-19T01:50:57.150Z,5.00
2022-11-19T01:53:30.013Z,5.43
2022-11-19T01:56:03.808Z,5.47
2022-11-19T01:58:36.403Z,5.03
2022-11-19T02:01:04.245Z,5.43
2022-11-19T02:03:34.267Z,5.20
2022-11-19T02:06:03.202Z,5.10
2022-11-19T02:08:40.183Z,4.87
2022-11-19T02:11:49.973Z,5.20
2022-11-19T02:14:55.187Z,5.57
2022-11-19T02:17:42.983Z,5.27
2022-11-19T02:20:51.451Z,5.27
2022-11-19T02:24:01.652Z,5.20
2022-11-19T02:27:09.235Z,5.13
2022-11-19T02:30:00.705Z,5.47
2022-11-19T02:32:34.598Z,5.50
2022-11-19T02:35:15.920Z,4.90
2022-11-19T02:37:54.669Z,5.10
2022-11-19T02:40:28.628Z,5.73
2022-11-19T02:43:07.954Z,5.27
2022-11-19T02:45:42.793Z,5.47
2022-11-19T02:48:16.910Z,4.80
2022-11-19T02:50:48.516Z,5.50
2022-11-19T02:53:15.568Z,5.50
2022-11-19T02:56:02.918Z,5.00
2022-11-19T02:58:51.928Z,4.93
2022-11-19T03:01:41.047Z,5.30
2022-11-19T03:04:29.987Z,5.30
2022-11-19T03:07:02.236Z,5.40
2022-11-19T03:09:32.858Z,5.80
2022-11-19T03:12:12.791Z,5.60
2022-11-19T03:15:11.683Z,5.40
2022-11-19T03:18:00.645Z,5.70
2022-11-19T03:20:35.160Z,5.17
2022-11-19T03:23:11.971Z,5.47
2022-11-19T03:25:46.714Z,5.50
2022-11-19T03:28:21.225Z,5.70
2022-11-19T03:30:52.333Z,5.30
2022-11-19T03:33:26.557Z,5.53
2022-11-19T03:35:59.123Z,5.63
2022-11-19T03:38:31.440Z,5.20
2022-11-19T03:40:59.643Z,5.60
2022-11-19T03:43:31.331Z,5.37
2022-11-19T03:46:01.999Z,5.17
2022-11-19T03:48:32.019Z,5.23
2022-11-19T03:51:08.466Z,5.73
2022-11-19T03:53:35.518Z,5.43
2022-11-19T03:56:08.984Z,5.67
2022-11-19T03:58:40.302Z,4.80
2022-11-19T04:01:08.216Z,5.50
2022-11-19T04:03:37.262Z,5.90
2022-11-19T04:06:05.484Z,5.80
2022-11-19T04:08:32.852Z,5.37
2022-11-19T04:13:25.841Z,5.60
2022-11-19T04:15:52.835Z,5.30
2022-11-19T04:18:21.127Z,4.90
2022-11-19T04:20:49.406Z,4.90
2022-11-19T04:23:16.338Z,5.90
2022-11-19T04:25:47.154Z,5.80
2022-11-19T04:28:14.089Z,5.33
2022-11-19T04:30:41.019Z,5.37
2022-11-19T04:33:07.971Z,5.97
2022-11-19T04:35:35.017Z,5.13
2022-11-19T04:38:03.323Z,5.70
2022-11-19T04:40:30.274Z,5.63
2022-11-19T04:42:57.234Z,5.57
2022-11-19T04:45:24.163Z,6.03
2022-11-19T04:47:51.081Z,5.43
2022-11-19T04:50:17.999Z,5.40
2022-11-19T04:52:44.961Z,5.67
2022-11-19T04:55:13.681Z,5.77
2022-11-19T04:57:40.666Z,5.57
2022-11-19T05:00:09.639Z,5.33
2022-11-19T05:02:36.680Z,5.40
2022-11-19T05:05:04.116Z,5.33
2022-11-19T05:07:31.254Z,5.63
2022-11-19T05:09:58.285Z,5.53
2022-11-19T05:12:26.651Z,5.23
2022-11-19T05:14:53.605Z,5.67
2022-11-19T05:17:20.548Z,5.53
2022-11-19T05:19:47.489Z,5.60
2022-11-19T05:22:14.632Z,5.77
2022-11-19T05:24:41.574Z,5.57
2022-11-19T05:27:08.966Z,5.63
2022-11-19T05:29:37.220Z,5.30
2022-11-19T05:32:04.831Z,5.70
2022-11-19T05:34:31.757Z,5.87
2022-11-19T05:36:58.728Z,5.87
2022-11-19T05:39:26.081Z,5.53
2022-11-19T05:41:53.204Z,5.90
2022-11-19T05:44:20.146Z,6.33
2022-11-19T05:46:48.452Z,6.20
2022-11-19T05:49:15.398Z,6.30
2022-11-19T05:51:42.342Z,5.60
2022-11-19T05:54:09.309Z,5.57
2022-11-19T05:56:36.270Z,6.00
2022-11-19T05:59:03.223Z,6.00
2022-11-19T06:01:30.908Z,5.63
2022-11-19T06:03:59.234Z,5.20
2022-11-19T06:06:26.503Z,5.17
2022-11-19T06:08:53.578Z,6.10
2022-11-19T06:11:38.993Z,5.40
2022-11-19T06:14:06.187Z,5.70
2022-11-19T06:16:33.409Z,6.47
2022-11-19T06:19:01.642Z,5.50
2022-11-19T06:21:28.654Z,5.70
2022-11-19T06:23:55.623Z,5.70
2022-11-19T06:26:24.088Z,5.83
2022-11-19T06:28:51.646Z,5.17
2022-11-19T06:31:19.219Z,6.43
2022-11-19T06:33:46.385Z,6.47
2022-11-19T06:36:15.171Z,6.90
2022-11-19T06:38:42.132Z,6.47
2022-11-19T06:41:09.068Z,6.30
2022-11-19T06:43:36.009Z,6.00
2022-11-19T06:46:03.147Z,5.47
2022-11-19T06:48:30.339Z,6.90
2022-11-19T06:50:57.765Z,6.50
2022-11-19T06:53:26.019Z,6.33
2022-11-19T06:55:56.878Z,6.27
2022-11-19T06:58:23.946Z,5.87
2022-11-19T07:00:51.007Z,5.83
2022-11-19T07:03:18.401Z,5.90
2022-11-19T07:05:46.868Z,5.97
2022-11-19T07:08:14.310Z,6.13
2022-11-19T07:10:42.912Z,5.60
2022-11-19T07:13:09.860Z,6.43
2022-11-19T07:15:37.621Z,6.23
2022-11-19T07:18:05.126Z,6.80
2022-11-19T07:20:32.332Z,6.93
2022-11-19T07:22:59.649Z,5.73
2022-11-19T07:25:27.014Z,6.00
2022-11-19T07:27:55.394Z,5.90
2022-11-19T07:30:22.474Z,7.17
2022-11-19T07:32:49.421Z,6.10
2022-11-19T07:35:16.475Z,6.40
2022-11-19T07:37:43.442Z,6.77
2022-11-19T07:40:14.369Z,6.73
2022-11-19T07:42:51.728Z,6.43
2022-11-19T07:45:22.503Z,6.77
2022-11-19T07:47:49.629Z,8.80
2022-11-19T07:50:17.631Z,7.37
2022-11-19T07:52:45.102Z,7.07
2022-11-19T07:55:12.352Z,6.23
2022-11-19T07:57:39.351Z,12.70
2022-11-19T08:00:07.905Z,8.83
2022-11-19T08:02:36.487Z,7.37
2022-11-19T08:05:04.049Z,8.13
2022-11-19T08:07:31.034Z,8.27
2022-11-19T08:09:58.311Z,10.60
2022-11-19T08:12:25.286Z,8.30
2022-11-19T08:14:52.202Z,9.57
2022-11-19T08:17:37.901Z,8.37
2022-11-19T08:20:07.979Z,9.67
2022-11-19T08:22:36.964Z,7.17
2022-11-19T08:25:04.765Z,6.97
2022-11-19T08:27:31.883Z,6.27
2022-11-19T08:29:58.897Z,6.20
2022-11-19T08:32:25.866Z,7.17
2022-11-19T08:34:52.828Z,6.30
2022-11-19T08:37:21.130Z,7.03
2022-11-19T08:39:48.069Z,5.80
2022-11-19T08:42:33.977Z,7.07
2022-11-19T08:45:01.074Z,7.07
2022-11-19T08:47:28.017Z,6.50
2022-11-19T08:49:55.002Z,6.57
2022-11-19T08:52:23.324Z,6.90
2022-11-19T08:54:50.263Z,7.60
2022-11-19T08:57:17.314Z,7.13
2022-11-19T08:59:44.341Z,6.13
2022-11-19T09:02:11.565Z,7.30
2022-11-19T09:04:38.759Z,6.80
2022-11-19T09:07:05.746Z,6.60
2022-11-19T09:09:34.057Z,7.00
2022-11-19T09:12:01.025Z,6.87
2022-11-19T09:14:28.276Z,6.97
2022-11-19T09:16:56.273Z,6.60
2022-11-19T09:19:23.234Z,12.67
2022-11-19T09:21:50.421Z,7.13
2022-11-19T09:24:18.100Z,7.20
2022-11-19T09:26:51.739Z,7.07
2022-11-19T09:29:19.931Z,7.20
2022-11-19T09:31:46.871Z,17.73
2022-11-19T09:34:13.790Z,8.27
2022-11-19T09:36:40.747Z,6.70
2022-11-19T09:39:07.749Z,7.63
2022-11-19T09:41:55.213Z,7.00
2022-11-19T09:44:44.529Z,5.93
2022-11-19T09:47:30.938Z,6.37
2022-11-19T09:50:11.599Z,5.90
2022-11-19T09:52:45.854Z,6.10
2022-11-19T09:55:20.831Z,6.03
2022-11-19T09:57:55.111Z,5.90
2022-11-19T10:00:27.002Z,5.40
2022-11-19T10:02:55.149Z,5.37
2022-11-19T10:05:35.136Z,5.33
2022-11-19T10:08:26.114Z,6.00
2022-11-19T10:11:09.945Z,5.40
2022-11-19T10:13:53.433Z,5.17
2022-11-19T10:16:38.792Z,4.87
2022-11-19T10:19:20.963Z,4.17
2022-11-19T10:22:00.946Z,5.37
2022-11-19T10:24:41.738Z,4.97
2022-11-19T10:27:19.627Z,9.73
2022-11-19T10:29:56.413Z,14.90
2022-11-19T10:32:32.532Z,5.30
2022-11-19T10:35:08.191Z,5.10
2022-11-19T10:37:47.445Z,5.80
2022-11-19T10:40:22.617Z,5.57
2022-11-19T10:42:55.079Z,5.33
2022-11-19T10:45:27.027Z,5.10
2022-11-19T10:48:08.817Z,4.80
2022-11-19T10:50:37.303Z,5.50
2022-11-19T10:53:13.587Z,4.97
2022-11-19T10:55:47.820Z,5.03
2022-11-19T10:58:25.636Z,4.60
2022-11-19T11:00:58.061Z,4.70
2022-11-19T11:03:30.847Z,4.93
2022-11-19T11:06:05.289Z,4.87
2022-11-19T11:08:33.135Z,5.63
2022-11-19T11:11:01.231Z,4.63
2022-11-19T11:13:56.960Z,5.30
2022-11-19T11:16:39.855Z,4.77
2022-11-19T11:19:14.653Z,6.47
2022-11-19T11:21:43.636Z,5.07
2022-11-19T11:24:12.966Z,4.40
2022-11-19T11:26:40.818Z,19.20
2022-11-19T11:29:27.477Z,18.03
2022-11-19T11:31:56.001Z,5.27
2022-11-19T11:34:35.701Z,4.87
2022-11-19T11:37:05.737Z,5.37
2022-11-19T11:39:37.600Z,5.83
2022-11-19T11:42:17.193Z,12.23
2022-11-19T11:44:52.467Z,6.53
2022-11-19T11:47:27.447Z,5.27
2022-11-19T11:50:15.017Z,4.73
2022-11-19T11:52:46.163Z,4.57
2022-11-19T11:55:29.318Z,5.23
2022-11-19T11:57:58.921Z,4.77
2022-11-19T12:00:40.711Z,4.83
2022-11-19T12:03:13.651Z,4.70
2022-11-19T12:05:56.491Z,4.70
2022-11-19T12:08:45.757Z,5.23
2022-11-19T12:11:26.050Z,4.17
2022-11-19T12:14:04.294Z,4.80
2022-11-19T12:16:57.491Z,5.30
2022-11-19T12:19:48.068Z,5.07
2022-11-19T12:22:32.143Z,5.10
2022-11-19T12:25:24.282Z,5.13
2022-11-19T12:28:14.966Z,4.63
2022-11-19T12:30:54.695Z,5.00
2022-11-19T12:33:44.192Z,4.73
2022-11-19T12:36:26.378Z,4.10
2022-11-19T12:39:02.714Z,4.10
2022-11-19T12:42:00.005Z,4.90
2022-11-19T12:44:44.695Z,5.50
2022-11-19T12:47:34.642Z,4.63
2022-11-19T12:50:26.695Z,4.70
2022-11-19T12:53:32.534Z,4.13
2022-11-19T12:56:20.326Z,4.57
2022-11-19T12:59:04.779Z,4.53
2022-11-19T13:01:37.435Z,4.63
2022-11-19T13:04:14.523Z,5.23
2022-11-19T13:06:48.641Z,5.47
2022-11-19T13:09:25.616Z,4.63
2022-11-19T13:11:59.383Z,4.13
2022-11-19T13:14:37.163Z,5.97
2022-11-19T13:17:13.918Z,4.30
2022-11-19T13:19:46.293Z,4.30
2022-11-19T13:22:20.843Z,4.30
2022-11-19T13:24:54.639Z,4.37
2022-11-19T13:27:27.089Z,4.57
2022-11-19T13:30:00.817Z,3.93
2022-11-19T13:32:38.983Z,3.70
2022-11-19T13:35:20.485Z,4.70
2022-11-19T13:37:58.847Z,4.50
2022-11-19T13:40:35.420Z,4.40
2022-11-19T13:43:31.985Z,3.93
2022-11-19T13:46:21.733Z,6.40
2022-11-19T13:48:58.406Z,4.27
2022-11-19T13:51:34.904Z,4.50
2022-11-19T13:54:07.017Z,19.47
2022-11-19T13:56:47.162Z,4.97
2022-11-19T13:59:39.396Z,4.57
2022-11-19T14:02:47.666Z,4.23
2022-11-19T14:05:48.703Z,4.13
2022-11-19T14:09:02.097Z,4.90
2022-11-19T14:12:01.559Z,4.53
2022-11-19T14:15:40.764Z,4.30
2022-11-19T14:18:42.707Z,4.67
2022-11-19T14:22:06.913Z,4.83
2022-11-19T14:25:15.877Z,5.37
2022-11-19T14:28:17.286Z,6.10
2022-11-19T14:31:03.065Z,5.70
2022-11-19T14:33:59.951Z,6.73
2022-11-19T14:36:43.372Z,6.10
2022-11-19T14:39:22.670Z,5.60
2022-11-19T14:42:15.687Z,5.30
2022-11-19T14:44:45.170Z,6.90
2022-11-19T14:47:38.369Z,5.53
2022-11-19T14:50:09.307Z,5.90
2022-11-19T14:52:51.809Z,6.33
2022-11-19T14:56:12.225Z,6.10
2022-11-19T14:58:51.298Z,6.13
2022-11-19T15:01:23.619Z,6.43
2022-11-19T15:03:55.810Z,5.87
2022-11-19T15:06:23.810Z,6.43
2022-11-19T15:08:53.967Z,6.17
2022-11-19T15:11:21.037Z,5.83
2022-11-19T15:14:27.602Z,6.30
2022-11-19T15:17:00.992Z,6.20
2022-11-19T15:19:43.927Z,6.27
2022-11-19T15:22:40.951Z,6.57
2022-11-19T15:25:40.791Z,6.40
2022-11-19T15:28:30.317Z,6.20
2022-11-19T15:31:20.264Z,6.90
2022-11-19T15:34:49.042Z,7.57
2022-11-19T15:37:33.866Z,6.60
2022-11-19T15:40:02.897Z,8.20
2022-11-19T15:42:41.279Z,7.70
2022-11-19T15:45:17.983Z,10.70
2022-11-19T15:47:52.554Z,7.17
2022-11-19T15:50:24.366Z,7.43
2022-11-19T15:52:59.270Z,7.80
2022-11-19T15:55:30.624Z,6.73
2022-11-19T15:58:07.998Z,7.40
2022-11-19T16:00:45.743Z,6.67
2022-11-19T16:03:13.567Z,8.70
2022-11-19T16:05:49.005Z,8.10
2022-11-19T16:08:17.216Z,6.77
2022-11-19T16:10:47.395Z,6.87
2022-11-19T16:13:41.777Z,7.33
2022-11-19T16:16:43.826Z,7.07
2022-11-19T16:19:15.093Z,8.00
2022-11-19T16:21:48.034Z,6.43
2022-11-19T16:24:39.696Z,6.73
2022-11-19T16:27:12.862Z,7.37
2022-11-19T16:29:42.691Z,6.63
2022-11-19T16:32:17.304Z,6.80
2022-11-19T16:34:45.685Z,7.50
2022-11-19T16:37:15.843Z,7.33
2022-11-19T16:39:50.880Z,6.90
2022-11-19T16:42:25.918Z,7.97
2022-11-19T16:44:56.630Z,18.13
2022-11-19T16:47:29.547Z,7.43
2022-11-19T16:50:03.591Z,8.23
2022-11-19T16:52:43.482Z,7.90
2022-11-19T16:55:51.304Z,7.80
2022-11-19T16:58:25.324Z,15.87
2022-11-19T17:01:18.009Z,7.90
2022-11-19T17:03:51.579Z,7.53
2022-11-19T17:06:34.534Z,8.23
2022-11-19T17:09:44.697Z,6.93
2022-11-19T17:12:34.430Z,7.50
2022-11-19T17:15:43.680Z,30.67
2022-11-19T17:18:20.799Z,9.83
2022-11-19T17:20:55.656Z,7.90
2022-11-19T17:23:25.670Z,7.93
2022-11-19T17:25:58.503Z,7.77
2022-11-19T17:28:49.996Z,7.83
2022-11-19T17:31:27.378Z,8.13
2022-11-19T17:34:14.875Z,7.27
2022-11-19T17:36:56.397Z,8.27
2022-11-19T17:39:25.864Z,8.57
2022-11-19T17:42:14.915Z,8.93
2022-11-19T17:44:42.302Z,16.87
2022-11-19T17:47:24.253Z,11.07
2022-11-19T17:49:52.835Z,35.20
2022-11-19T17:52:23.865Z,10.17
2022-11-19T17:54:52.813Z,9.07
2022-11-19T17:57:21.447Z,10.07
2022-11-19T17:59:48.448Z,9.33
2022-11-19T18:02:18.571Z,10.23
2022-11-19T18:04:52.685Z,9.50
2022-11-19T18:07:24.746Z,9.33
2022-11-19T18:09:58.984Z,10.87
2022-11-19T18:12:39.471Z,10.17
2022-11-19T18:15:07.600Z,12.83
2022-11-19T18:17:50.205Z,10.60
2022-11-19T18:20:26.026Z,8.90
2022-11-19T18:22:53.828Z,8.07
2022-11-19T18:25:22.567Z,8.60
2022-11-19T18:27:51.018Z,7.73
2022-11-19T18:30:19.329Z,8.40
2022-11-19T18:32:46.491Z,10.03
2022-11-19T18:35:17.770Z,8.97
2022-11-19T18:37:45.520Z,9.27
2022-11-19T18:40:14.702Z,9.53
2022-11-19T18:43:03.692Z,10.77
2022-11-19T18:45:32.198Z,10.67
2022-11-19T18:47:59.139Z,10.27
2022-11-19T18:50:29.856Z,9.83
2022-11-19T18:52:57.423Z,11.30
2022-11-19T18:55:24.446Z,11.63
2022-11-19T18:57:52.133Z,12.13
2022-11-19T19:00:19.709Z,11.57
2022-11-19T19:02:48.386Z,10.97
2022-11-19T19:05:15.808Z,10.90
2022-11-19T19:07:42.824Z,10.73
2022-11-19T19:10:10.984Z,10.27
2022-11-19T19:12:38.014Z,11.00
2022-11-19T19:15:06.568Z,11.50
2022-11-19T19:17:33.540Z,9.77
2022-11-19T19:20:01.874Z,10.83
2022-11-19T19:22:29.192Z,11.73
2022-11-19T19:24:58.336Z,11.10
2022-11-19T19:27:25.596Z,11.33
2022-11-19T19:29:52.610Z,11.47
2022-11-19T19:32:19.604Z,12.77
2022-11-19T19:34:46.614Z,13.47
2022-11-19T19:37:15.327Z,11.83
2022-11-19T19:39:42.533Z,12.20
2022-11-19T19:42:09.592Z,11.93
2022-11-19T19:44:36.978Z,11.77
2022-11-19T19:47:05.094Z,12.13
2022-11-19T19:49:37.305Z,12.63
2022-11-19T19:52:05.609Z,12.33
2022-11-19T19:54:33.901Z,12.17
2022-11-19T19:57:00.842Z,11.83
2022-11-19T19:59:27.839Z,12.73
2022-11-19T20:01:55.092Z,12.33
2022-11-19T20:04:22.053Z,11.33
2022-11-19T20:06:50.929Z,10.77
2022-11-19T20:09:18.036Z,11.77
2022-11-19T20:11:46.940Z,10.97
2022-11-19T20:14:14.019Z,10.50
2022-11-19T20:16:41.694Z,9.93
2022-11-19T20:19:14.095Z,9.83
2022-11-19T20:21:41.318Z,10.70
2022-11-19T20:24:12.240Z,10.80
2022-11-19T20:26:42.204Z,10.80
2022-11-19T20:29:14.047Z,9.83
2022-11-19T20:31:45.958Z,11.10
2022-11-19T20:34:13.005Z,11.13
2022-11-19T20:36:40.381Z,11.37
2022-11-19T20:39:07.570Z,9.50
2022-11-19T20:41:53.215Z,9.33
2022-11-19T20:44:23.117Z,9.47
2022-11-19T20:46:53.228Z,10.40
2022-11-19T20:49:23.706Z,10.20
2022-11-19T20:51:52.534Z,10.40
2022-11-19T20:54:21.283Z,9.47
2022-11-19T20:56:49.409Z,8.93
2022-11-19T20:59:17.336Z,9.60
2022-11-19T21:01:47.193Z,9.53
2022-11-19T21:04:14.248Z,9.80
2022-11-19T21:06:42.579Z,9.73
2022-11-19T21:09:09.621Z,9.30
2022-11-19T21:11:36.636Z,10.17
2022-11-19T21:14:04.234Z,10.50
2022-11-19T21:16:32.686Z,10.67
2022-11-19T21:19:01.307Z,9.83
2022-11-19T21:21:28.277Z,10.87
2022-11-19T21:23:55.572Z,10.13
2022-11-19T21:26:25.448Z,10.60
2022-11-19T21:28:55.117Z,10.30
2022-11-19T21:31:38.701Z,9.60
2022-11-19T21:34:09.926Z,10.33
2022-11-19T21:36:38.039Z,10.17
2022-11-19T21:39:06.970Z,10.60
2022-11-19T21:41:34.605Z,9.43
2022-11-19T21:44:02.012Z,10.33
2022-11-19T21:46:29.462Z,11.20
2022-11-19T21:48:56.767Z,11.17
2022-11-19T21:51:25.601Z,10.80
2022-11-19T21:53:54.319Z,10.10
2022-11-19T21:56:21.446Z,10.57
2022-11-19T21:58:48.356Z,11.30
2022-11-19T22:01:15.567Z,10.33
2022-11-19T22:03:42.621Z,11.00
2022-11-19T22:06:11.867Z,10.97
2022-11-19T22:08:42.472Z,10.97
2022-11-19T22:11:30.113Z,11.50
2022-11-19T22:13:59.745Z,10.97
2022-11-19T22:16:27.332Z,10.40
2022-11-19T22:18:54.466Z,10.47
2022-11-19T22:21:21.720Z,12.33
2022-11-19T22:23:52.503Z,10.47
2022-11-19T22:26:19.526Z,12.30
2022-11-19T22:28:47.844Z,13.13
2022-11-19T22:31:15.590Z,12.60
2022-11-19T22:33:42.717Z,11.93
2022-11-19T22:36:11.318Z,11.50
2022-11-19T22:38:39.380Z,11.13
2022-11-19T22:41:11.255Z,11.73
2022-11-19T22:43:39.996Z,11.93
2022-11-19T22:46:09.530Z,11.20
2022-11-19T22:48:37.925Z,11.73
2022-11-19T22:51:07.760Z,11.63
2022-11-19T22:53:35.033Z,12.00
2022-11-19T22:56:02.338Z,11.13
2022-11-19T22:58:30.712Z,10.93
2022-11-19T23:00:57.879Z,11.23
2022-11-19T23:03:25.023Z,11.00
2022-11-19T23:05:53.726Z,11.10
2022-11-19T23:08:21.992Z,10.43
2022-11-19T23:10:49.048Z,11.13
2022-11-19T23:13:32.339Z,12.30
2022-11-19T23:16:07.250Z,10.33
2022-11-19T23:18:37.300Z,10.20
2022-11-19T23:21:08.657Z,10.63
2022-11-19T23:23:36.019Z,10.50
2022-11-19T23:26:05.002Z,11.03
2022-11-19T23:28:34.938Z,11.53
2022-11-19T23:31:10.310Z,11.07
2022-11-19T23:33:37.761Z,11.03
2022-11-19T23:36:08.057Z,12.53
2022-11-19T23:38:38.821Z,11.40
2022-11-19T23:41:08.093Z,12.57
2022-11-19T23:43:36.331Z,11.57
2022-11-19T23:46:07.578Z,9.93
2022-11-19T23:48:37.303Z,11.50
2022-11-19T23:51:07.197Z,10.07
2022-11-19T23:53:34.154Z,9.60
2022-11-19T23:56:01.944Z,11.13
2022-11-19T23:58:29.268Z,10.00
